Time;durP1;ratioP1;P1;durP2;ratioP2;P2;SDS_P1;SDS_P2;PMS_P1;PMS_P2;Temp;Humidity;BMP_temperature;BMP_pressure;BME280_temperature;BME280_humidity;BME280_pressure;Samples;Min_cycle;Max_cycle;Signal;HPM_P1;HPM_P2
2024/01/15 00:00:22;;;;;;;28.33;21.07;;;1.20;99.90;;;;;;4957324;28;20258;-58
2024/01/15 00:02:49;;;;;;;29.03;21.27;;;1.20;99.90;;;;;;4946423;28;20307;-58
2024/01/15 00:05:16;;;;;;;31.00;22.33;;;1.20;99.90;;;;;;4946661;28;20195;-59
2024/01/15 00:07:43;;;;;;;29.70;22.70;;;1.20;99.90;;;;;;4935007;28;20534;-57
2024/01/15 00:10:10;;;;;;;26.17;22.27;;;1.20;99.90;;;;;;4943869;28;20223;-60
2024/01/15 00:12:37;;;;;;;31.90;22.90;;;1.20;99.90;;;;;;4950692;28;20551;-59
2024/01/15 00:15:04;;;;;;;33.70;22.63;;;1.30;99.90;;;;;;4950540;28;20631;-59
2024/01/15 00:17:32;;;;;;;42.83;25.27;;;1.30;99.90;;;;;;4954970;28;20210;-59
2024/01/15 00:19:59;;;;;;;35.97;23.40;;;1.30;99.90;;;;;;4931025;29;20226;-59
2024/01/15 00:22:29;;;;;;;36.67;23.97;;;1.30;99.90;;;;;;4916719;29;20199;-58
2024/01/15 00:24:56;;;;;;;39.87;25.83;;;1.30;99.90;;;;;;4946588;28;20897;-59
2024/01/15 00:27:23;;;;;;;36.00;24.73;;;1.30;99.90;;;;;;4955136;28;20199;-58
2024/01/15 00:29:51;;;;;;;32.63;23.77;;;1.30;99.90;;;;;;4934370;29;20255;-59
2024/01/15 00:32:19;;;;;;;37.27;23.97;;;1.30;99.90;;;;;;4957975;28;20247;-59
2024/01/15 00:34:47;;;;;;;35.50;22.77;;;1.30;99.90;;;;;;4956732;28;20213;-60
2024/01/15 00:37:14;;;;;;;35.00;24.00;;;1.40;99.90;;;;;;4954254;28;20281;-60
2024/01/15 00:39:42;;;;;;;32.50;23.80;;;1.40;99.90;;;;;;4947398;28;20202;-60
2024/01/15 00:42:09;;;;;;;37.20;26.27;;;1.40;99.90;;;;;;4948143;28;20199;-60
2024/01/15 00:44:36;;;;;;;32.13;23.93;;;1.40;99.90;;;;;;4950851;28;20257;-60
2024/01/15 00:47:03;;;;;;;33.50;23.77;;;1.40;99.90;;;;;;4949755;28;20361;-58
2024/01/15 00:49:30;;;;;;;36.30;24.97;;;1.40;99.90;;;;;;4940787;28;20210;-56
2024/01/15 00:51:57;;;;;;;32.93;23.73;;;1.40;99.90;;;;;;4941402;29;20204;-59
2024/01/15 00:54:24;;;;;;;32.37;24.70;;;1.40;99.90;;;;;;4964966;28;20264;-59
2024/01/15 00:56:51;;;;;;;32.53;22.30;;;1.40;99.90;;;;;;4950480;28;21059;-57
2024/01/15 00:59:20;;;;;;;41.87;24.93;;;1.40;99.90;;;;;;4948898;28;20199;-57
2024/01/15 01:01:47;;;;;;;37.00;24.73;;;1.40;99.90;;;;;;4954967;28;20257;-63
2024/01/15 01:04:14;;;;;;;35.10;22.87;;;1.40;99.90;;;;;;4945026;28;20273;-63
2024/01/15 01:06:41;;;;;;;30.83;23.07;;;1.30;99.90;;;;;;4935614;28;20210;-65
2024/01/15 01:09:08;;;;;;;41.20;25.20;;;1.30;99.90;;;;;;4946422;28;20515;-63
2024/01/15 01:11:35;;;;;;;36.00;24.23;;;1.30;99.90;;;;;;4925160;28;20566;-65
2024/01/15 01:14:03;;;;;;;40.63;22.77;;;1.30;99.90;;;;;;4953896;28;20226;-62
2024/01/15 01:16:30;;;;;;;40.33;23.57;;;1.30;99.90;;;;;;4941491;28;20249;-63
2024/01/15 01:18:57;;;;;;;32.50;22.87;;;1.30;99.90;;;;;;4955043;28;20210;-63
2024/01/15 01:21:25;;;;;;;40.37;23.17;;;1.40;99.90;;;;;;4954469;28;20206;-63
2024/01/15 01:23:51;;;;;;;29.33;22.40;;;1.40;99.90;;;;;;4947042;28;20191;-63
2024/01/15 01:26:18;;;;;;;41.43;23.60;;;1.40;99.90;;;;;;4920200;28;20688;-63
2024/01/15 01:28:45;;;;;;;35.73;24.80;;;1.40;99.90;;;;;;4948086;28;20290;-62
2024/01/15 01:31:12;;;;;;;30.97;22.53;;;1.50;99.90;;;;;;4940969;28;20625;-61
2024/01/15 01:33:40;;;;;;;29.43;21.73;;;1.50;99.90;;;;;;4959141;28;20202;-63
2024/01/15 01:36:09;;;;;;;36.67;23.03;;;1.40;99.90;;;;;;4955527;28;20284;-63
2024/01/15 01:38:37;;;;;;;29.17;20.80;;;1.40;99.90;;;;;;4952700;28;20203;-63
2024/01/15 01:41:04;;;;;;;24.13;19.77;;;1.50;99.90;;;;;;4939013;28;20214;-62
2024/01/15 01:43:31;;;;;;;35.43;21.63;;;1.50;99.90;;;;;;4937667;29;20199;-63
2024/01/15 01:46:00;;;;;;;29.27;21.93;;;1.50;99.90;;;;;;4960419;28;20205;-63
2024/01/15 01:48:28;;;;;;;29.70;22.00;;;1.50;99.90;;;;;;4957848;28;20206;-64
2024/01/15 01:50:57;;;;;;;34.60;23.33;;;1.40;99.90;;;;;;4944323;28;20611;-63
2024/01/15 01:53:26;;;;;;;31.70;22.27;;;1.40;99.90;;;;;;4952366;28;20261;-63
2024/01/15 01:55:55;;;;;;;39.13;22.43;;;1.40;99.90;;;;;;4967786;28;20253;-62
2024/01/15 01:58:23;;;;;;;32.83;22.43;;;1.40;99.90;;;;;;4955820;28;20203;-62
2024/01/15 02:00:50;;;;;;;28.93;22.10;;;1.50;99.90;;;;;;4936680;29;20306;-63
2024/01/15 02:03:17;;;;;;;31.13;22.43;;;1.40;99.90;;;;;;4959748;28;20527;-63
2024/01/15 02:05:45;;;;;;;30.97;21.77;;;1.50;99.90;;;;;;4943241;28;20407;-62
2024/01/15 02:08:12;;;;;;;39.53;22.60;;;1.50;99.90;;;;;;4962015;28;20204;-61
2024/01/15 02:10:39;;;;;;;29.63;22.10;;;1.40;99.90;;;;;;4957732;28;20211;-62
2024/01/15 02:13:06;;;;;;;30.83;21.93;;;1.40;99.90;;;;;;4961730;28;20878;-63
2024/01/15 02:15:34;;;;;;;29.03;21.10;;;1.40;99.90;;;;;;4951940;28;20340;-63
2024/01/15 02:18:06;;;;;;;25.20;19.67;;;1.30;99.90;;;;;;4947697;28;20594;-62
2024/01/15 02:20:33;;;;;;;29.87;21.30;;;1.30;99.90;;;;;;4937413;28;20214;-62
2024/01/15 02:23:10;;;;;;;30.60;21.27;;;1.30;99.90;;;;;;4951391;28;20210;-64
2024/01/15 02:25:39;;;;;;;30.40;21.63;;;1.40;99.90;;;;;;4954321;28;20241;-63
2024/01/15 02:28:09;;;;;;;33.60;21.43;;;1.40;99.90;;;;;;4951429;28;20191;-63
2024/01/15 02:30:41;;;;;;;30.77;22.13;;;1.40;99.90;;;;;;4958029;28;20198;-63
2024/01/15 02:33:09;;;;;;;29.00;21.83;;;1.60;99.90;;;;;;4951485;28;20194;-63
2024/01/15 02:35:37;;;;;;;32.07;22.83;;;1.50;99.90;;;;;;4956439;28;20854;-62
2024/01/15 02:38:04;;;;;;;35.50;23.40;;;1.50;99.90;;;;;;4955202;28;20207;-62
2024/01/15 02:40:32;;;;;;;24.73;21.27;;;1.50;99.90;;;;;;4933437;28;20274;-62
2024/01/15 02:42:59;;;;;;;30.20;21.93;;;1.60;99.90;;;;;;4948802;28;20201;-62
2024/01/15 02:45:26;;;;;;;38.60;22.67;;;1.50;99.90;;;;;;4954087;28;20198;-63
2024/01/15 02:47:53;;;;;;;31.07;23.00;;;1.50;99.90;;;;;;4951782;28;20876;-62
2024/01/15 02:50:20;;;;;;;29.63;23.27;;;1.50;99.90;;;;;;4951602;28;20219;-63
2024/01/15 02:52:47;;;;;;;30.97;21.53;;;1.60;99.90;;;;;;4953899;28;20187;-63
2024/01/15 02:55:15;;;;;;;28.73;22.33;;;1.60;99.90;;;;;;4958733;28;20208;-61
2024/01/15 02:57:41;;;;;;;32.27;22.70;;;1.60;99.90;;;;;;4948141;28;20644;-62
2024/01/15 03:00:09;;;;;;;31.30;22.57;;;1.60;99.90;;;;;;4945344;28;20262;-63
2024/01/15 03:03:33;;;;;;;36.97;22.83;;;1.60;99.90;;;;;;4929667;29;20271;-62
2024/01/15 03:06:02;;;;;;;29.00;23.37;;;1.60;99.90;;;;;;4925150;29;20217;-63
2024/01/15 03:08:29;;;;;;;26.33;23.53;;;1.60;99.90;;;;;;4927260;29;20614;-62
2024/01/15 03:10:56;;;;;;;27.73;21.77;;;1.60;99.90;;;;;;4941910;29;20675;-62
2024/01/15 03:13:23;;;;;;;30.60;21.90;;;1.50;99.90;;;;;;4938767;29;20513;-64
2024/01/15 03:15:50;;;;;;;31.43;22.97;;;1.40;99.90;;;;;;4941700;28;20199;-64
2024/01/15 03:18:17;;;;;;;23.60;20.97;;;1.30;99.90;;;;;;4944849;28;20203;-64
2024/01/15 03:20:44;;;;;;;30.10;23.27;;;1.20;99.90;;;;;;4939616;29;20216;-59
2024/01/15 03:23:11;;;;;;;29.47;22.93;;;1.30;99.90;;;;;;4947686;28;20745;-57
2024/01/15 03:25:38;;;;;;;30.23;21.60;;;1.30;99.90;;;;;;4933480;29;20188;-58
2024/01/15 03:28:05;;;;;;;41.03;22.63;;;1.20;99.90;;;;;;4935636;29;20652;-56
2024/01/15 03:30:32;;;;;;;25.43;21.70;;;1.20;99.90;;;;;;4942377;28;20716;-59
2024/01/15 03:32:59;;;;;;;27.03;21.37;;;1.40;99.90;;;;;;4933495;29;20570;-59
2024/01/15 03:35:29;;;;;;;26.00;22.03;;;1.50;99.90;;;;;;4940994;28;20345;-58
2024/01/15 03:37:56;;;;;;;24.77;19.93;;;1.50;99.90;;;;;;4928840;29;20218;-57
2024/01/15 03:40:23;;;;;;;28.47;23.60;;;1.60;99.90;;;;;;4934261;29;20334;-59
2024/01/15 03:42:51;;;;;;;27.77;21.33;;;1.60;99.90;;;;;;4932111;28;20202;-59
2024/01/15 03:45:18;;;;;;;27.50;21.70;;;1.60;99.90;;;;;;4933713;29;20192;-59
2024/01/15 03:47:45;;;;;;;26.33;21.97;;;1.60;99.90;;;;;;4935207;29;20195;-59
2024/01/15 03:50:12;;;;;;;26.80;22.80;;;1.70;99.90;;;;;;4931655;28;20598;-58
2024/01/15 03:52:39;;;;;;;26.10;21.70;;;1.60;99.90;;;;;;4923667;29;20542;-60
2024/01/15 03:55:07;;;;;;;30.43;21.13;;;1.60;99.90;;;;;;4924581;29;20206;-56
2024/01/15 03:57:34;;;;;;;27.23;21.80;;;1.50;99.90;;;;;;4936591;29;20200;-58
2024/01/15 04:00:01;;;;;;;25.40;20.80;;;1.50;99.90;;;;;;4933181;28;20235;-57
2024/01/15 04:02:31;;;;;;;24.10;19.70;;;1.40;99.90;;;;;;4916237;29;20250;-58
2024/01/15 04:04:58;;;;;;;21.97;19.70;;;1.30;99.90;;;;;;4908745;29;20197;-57
2024/01/15 04:07:24;;;;;;;27.07;21.00;;;1.30;99.90;;;;;;4906731;29;20303;-57
2024/01/15 04:09:51;;;;;;;24.97;19.23;;;1.20;99.90;;;;;;4908430;29;20373;-59
2024/01/15 04:12:19;;;;;;;26.67;19.87;;;1.20;99.90;;;;;;4914632;29;20627;-58
2024/01/15 04:14:46;;;;;;;20.63;18.40;;;1.20;99.90;;;;;;4911798;29;20205;-58
2024/01/15 04:17:13;;;;;;;29.50;19.70;;;1.30;99.90;;;;;;4924125;29;20200;-59
2024/01/15 04:19:43;;;;;;;21.27;18.17;;;1.30;99.90;;;;;;4901455;29;20204;-59
2024/01/15 04:22:11;;;;;;;26.27;20.07;;;1.30;99.90;;;;;;4927025;29;20552;-57
2024/01/15 04:24:38;;;;;;;28.00;19.27;;;1.40;99.90;;;;;;4902389;29;20266;-59
2024/01/15 04:27:06;;;;;;;21.93;19.37;;;1.50;99.90;;;;;;4912665;29;20256;-59
2024/01/15 04:29:33;;;;;;;23.93;20.23;;;1.40;99.90;;;;;;4913148;29;20282;-58
2024/01/15 04:32:03;;;;;;;25.43;19.13;;;1.50;99.90;;;;;;4904180;29;20238;-58
2024/01/15 04:34:30;;;;;;;26.87;20.47;;;1.40;99.90;;;;;;4913179;29;20677;-58
2024/01/15 04:36:57;;;;;;;20.47;18.23;;;1.40;99.90;;;;;;4908451;29;20204;-59
2024/01/15 04:39:24;;;;;;;21.73;19.53;;;1.50;99.90;;;;;;4918235;29;20291;-58
2024/01/15 04:41:51;;;;;;;27.17;19.57;;;1.50;99.90;;;;;;4924756;29;20302;-58
2024/01/15 04:44:19;;;;;;;22.53;18.57;;;1.50;99.90;;;;;;4932770;29;20180;-59
2024/01/15 04:46:45;;;;;;;20.67;18.53;;;1.50;99.90;;;;;;4911538;29;20196;-58
2024/01/15 04:49:12;;;;;;;23.53;18.93;;;1.60;99.90;;;;;;4906981;29;20205;-58
2024/01/15 04:51:40;;;;;;;22.77;18.53;;;1.70;99.90;;;;;;4911231;29;20196;-58
2024/01/15 04:54:07;;;;;;;24.37;18.63;;;1.70;99.90;;;;;;4914683;29;20267;-58
2024/01/15 04:56:34;;;;;;;29.73;19.13;;;1.70;99.90;;;;;;4918328;29;20563;-59
2024/01/15 04:59:01;;;;;;;22.70;18.73;;;1.70;99.90;;;;;;4938078;29;20612;-58
2024/01/15 05:01:32;;;;;;;32.50;19.07;;;1.70;99.90;;;;;;4918666;29;20228;-58
2024/01/15 05:03:59;;;;;;;26.23;18.30;;;1.70;99.90;;;;;;4907217;29;20212;-58
2024/01/15 05:06:26;;;;;;;23.43;18.90;;;1.70;99.90;;;;;;4918249;29;20214;-59
2024/01/15 05:08:53;;;;;;;21.77;18.80;;;1.70;99.90;;;;;;4908791;29;20246;-58
2024/01/15 05:11:20;;;;;;;27.43;20.43;;;1.70;99.90;;;;;;4920886;29;20208;-58
2024/01/15 05:13:47;;;;;;;20.13;18.03;;;1.80;99.90;;;;;;4904117;29;20283;-58
2024/01/15 05:16:14;;;;;;;20.63;18.53;;;1.70;99.90;;;;;;4907913;29;20687;-58
2024/01/15 05:18:43;;;;;;;20.70;18.67;;;1.80;99.90;;;;;;4922523;29;20216;-58
2024/01/15 05:21:10;;;;;;;20.43;18.37;;;1.80;99.90;;;;;;4895813;29;20718;-59
2024/01/15 05:23:37;;;;;;;20.17;18.07;;;1.60;99.90;;;;;;4911075;29;20215;-59
2024/01/15 05:26:04;;;;;;;22.83;18.80;;;1.50;99.90;;;;;;4920250;29;20243;-57
2024/01/15 05:28:31;;;;;;;21.27;17.57;;;1.50;99.90;;;;;;4926791;29;20638;-59
2024/01/15 05:30:58;;;;;;;22.10;18.63;;;1.50;99.90;;;;;;4917421;29;20188;-60
2024/01/15 05:33:25;;;;;;;21.80;17.57;;;1.60;99.90;;;;;;4912930;29;20204;-60
2024/01/15 05:35:53;;;;;;;21.00;18.77;;;1.50;99.90;;;;;;4926110;29;20725;-60
2024/01/15 05:38:20;;;;;;;22.97;18.30;;;1.50;99.90;;;;;;4910775;29;20249;-59
2024/01/15 05:40:47;;;;;;;23.37;17.97;;;1.50;99.90;;;;;;4912404;29;20291;-64
2024/01/15 05:43:14;;;;;;;23.83;18.80;;;1.60;99.90;;;;;;4919028;29;20374;-65
2024/01/15 05:45:43;;;;;;;19.23;17.33;;;1.60;99.90;;;;;;4919011;29;20211;-65
2024/01/15 05:48:11;;;;;;;19.63;17.47;;;1.70;99.90;;;;;;4916713;29;20201;-65
2024/01/15 05:50:38;;;;;;;20.13;17.43;;;1.70;99.90;;;;;;4925862;29;20198;-65
2024/01/15 05:53:05;;;;;;;19.33;17.47;;;1.70;99.90;;;;;;4917410;29;20592;-62
2024/01/15 05:55:32;;;;;;;21.33;17.77;;;1.70;99.90;;;;;;4925743;29;20916;-63
2024/01/15 05:57:59;;;;;;;21.17;17.53;;;1.80;99.90;;;;;;4918824;29;20216;-65
2024/01/15 06:00:26;;;;;;;19.57;17.57;;;1.80;99.90;;;;;;4913952;29;20444;-65
2024/01/15 06:02:53;;;;;;;24.23;18.83;;;1.80;99.90;;;;;;4931158;29;20323;-65
2024/01/15 06:05:20;;;;;;;19.47;17.57;;;1.80;99.90;;;;;;4911979;29;20269;-65
2024/01/15 06:07:47;;;;;;;20.30;18.40;;;1.80;99.90;;;;;;4914772;29;20197;-65
2024/01/15 06:10:14;;;;;;;22.27;18.53;;;1.80;99.90;;;;;;4900594;29;20213;-65
2024/01/15 06:12:43;;;;;;;25.93;17.80;;;1.80;99.90;;;;;;4927555;29;20700;-65
2024/01/15 06:15:11;;;;;;;20.80;17.73;;;1.90;99.90;;;;;;4924724;29;20212;-65
2024/01/15 06:17:38;;;;;;;21.00;18.83;;;1.90;99.90;;;;;;4915383;29;20204;-65
2024/01/15 06:20:06;;;;;;;19.67;17.93;;;1.90;99.90;;;;;;4914744;29;20279;-64
2024/01/15 06:22:33;;;;;;;21.17;18.87;;;1.90;99.90;;;;;;4916130;29;20250;-64
2024/01/15 06:25:00;;;;;;;22.80;19.03;;;1.90;99.90;;;;;;4918207;29;20262;-65
2024/01/15 06:27:27;;;;;;;20.33;18.13;;;2.00;99.90;;;;;;4921853;29;20204;-65
2024/01/15 06:29:56;;;;;;;23.47;18.43;;;1.90;99.90;;;;;;4925330;29;20214;-63
2024/01/15 06:32:22;;;;;;;20.13;18.03;;;1.90;99.90;;;;;;4909653;29;20192;-63
2024/01/15 06:34:49;;;;;;;23.13;20.40;;;1.90;99.90;;;;;;4923285;29;20256;-63
2024/01/15 06:37:18;;;;;;;21.80;19.40;;;1.90;99.90;;;;;;4910103;29;20192;-64
2024/01/15 06:39:45;;;;;;;28.40;19.27;;;1.90;99.90;;;;;;4931790;29;20228;-63
2024/01/15 06:42:13;;;;;;;21.73;19.10;;;1.90;99.90;;;;;;4916913;29;20609;-63
2024/01/15 06:44:40;;;;;;;23.03;18.70;;;2.00;99.90;;;;;;4914641;29;20192;-64
2024/01/15 06:47:07;;;;;;;23.37;18.83;;;2.00;99.90;;;;;;4912846;29;20192;-64
2024/01/15 06:49:34;;;;;;;21.83;19.50;;;1.90;99.90;;;;;;4923401;29;20539;-63
2024/01/15 06:52:01;;;;;;;24.73;18.87;;;1.90;99.90;;;;;;4931021;29;20209;-64
2024/01/15 06:54:29;;;;;;;29.50;20.13;;;1.90;99.90;;;;;;4925111;29;20199;-63
2024/01/15 06:56:56;;;;;;;21.73;19.37;;;1.90;99.90;;;;;;4919704;29;20710;-65
2024/01/15 06:59:23;;;;;;;28.67;20.70;;;1.90;99.90;;;;;;4937599;29;20208;-64
2024/01/15 07:01:49;;;;;;;21.27;19.17;;;2.00;99.90;;;;;;4950996;28;20235;-64
2024/01/15 07:04:17;;;;;;;26.07;21.27;;;2.00;99.90;;;;;;4956579;28;20191;-64
2024/01/15 07:06:44;;;;;;;22.53;19.60;;;2.00;99.90;;;;;;4945232;28;20202;-64
2024/01/15 07:09:11;;;;;;;21.87;19.57;;;1.90;99.90;;;;;;4959691;28;20616;-63
2024/01/15 07:11:38;;;;;;;33.30;20.57;;;2.00;99.90;;;;;;4962209;28;20207;-64
2024/01/15 07:14:05;;;;;;;30.90;20.40;;;2.00;99.90;;;;;;4938552;28;20217;-64
2024/01/15 07:16:32;;;;;;;21.67;19.53;;;2.00;99.90;;;;;;4967004;28;20227;-64
2024/01/15 07:19:04;;;;;;;28.27;19.87;;;1.90;99.90;;;;;;4959864;28;20198;-64
2024/01/15 07:21:32;;;;;;;22.77;19.20;;;1.90;99.90;;;;;;4932312;29;20301;-64
2024/01/15 07:23:59;;;;;;;23.23;19.30;;;1.90;99.90;;;;;;4958831;28;20607;-64
2024/01/15 07:26:26;;;;;;;25.83;20.90;;;1.80;99.90;;;;;;4955600;28;20191;-63
2024/01/15 07:28:53;;;;;;;24.30;21.03;;;1.80;99.90;;;;;;4943753;28;20576;-63
2024/01/15 07:31:19;;;;;;;23.87;20.53;;;1.80;99.90;;;;;;4943923;29;20195;-64
2024/01/15 07:33:47;;;;;;;25.03;19.87;;;1.70;99.90;;;;;;4962440;28;20190;-64
2024/01/15 07:36:14;;;;;;;28.07;20.63;;;1.70;99.90;;;;;;4958594;28;20199;-64
2024/01/15 07:38:41;;;;;;;22.63;20.30;;;1.70;99.90;;;;;;4951243;28;20198;-63
2024/01/15 07:41:08;;;;;;;23.10;19.70;;;1.70;99.90;;;;;;4938597;28;20194;-64
2024/01/15 07:43:35;;;;;;;30.53;20.50;;;1.70;99.90;;;;;;4922086;28;20214;-64
2024/01/15 07:46:02;;;;;;;22.70;20.17;;;1.70;99.90;;;;;;4956760;28;20684;-64
2024/01/15 07:48:30;;;;;;;29.60;20.03;;;1.70;99.90;;;;;;4954886;28;20199;-65
2024/01/15 07:50:57;;;;;;;22.73;20.10;;;1.70;99.90;;;;;;4945625;28;20195;-64
2024/01/15 07:53:24;;;;;;;21.93;19.37;;;1.70;99.90;;;;;;4951216;28;20194;-64
2024/01/15 07:55:51;;;;;;;25.60;19.83;;;1.70;99.90;;;;;;4941009;28;20678;-64
2024/01/15 07:58:18;;;;;;;24.60;20.37;;;1.60;99.90;;;;;;4952835;28;20226;-63
2024/01/15 08:00:45;;;;;;;23.23;20.13;;;1.60;99.90;;;;;;4934708;28;20301;-60
2024/01/15 08:03:12;;;;;;;25.87;19.27;;;1.60;99.90;;;;;;4939751;29;20959;-59
2024/01/15 08:05:40;;;;;;;21.87;19.33;;;1.60;99.90;;;;;;4959024;28;20187;-59
2024/01/15 08:08:07;;;;;;;32.30;20.57;;;1.70;99.90;;;;;;4943729;28;20198;-60
2024/01/15 08:10:34;;;;;;;22.13;18.17;;;1.70;99.90;;;;;;4955092;28;20199;-61
2024/01/15 08:13:01;;;;;;;22.37;19.67;;;1.80;99.90;;;;;;4950859;28;20205;-59
2024/01/15 08:15:28;;;;;;;22.50;18.67;;;1.80;99.90;;;;;;4953842;28;20205;-60
2024/01/15 08:17:58;;;;;;;22.47;20.07;;;1.80;99.90;;;;;;4955799;28;20198;-60
2024/01/15 08:20:25;;;;;;;21.97;19.20;;;1.70;99.90;;;;;;4935585;28;20246;-60
2024/01/15 08:22:53;;;;;;;23.90;19.03;;;1.60;99.90;;;;;;4961023;28;20238;-63
2024/01/15 08:25:20;;;;;;;22.47;19.57;;;1.50;99.90;;;;;;4935489;28;20610;-60
2024/01/15 08:27:47;;;;;;;21.23;18.50;;;1.50;99.90;;;;;;4958016;28;20285;-60
2024/01/15 08:30:15;;;;;;;26.10;19.43;;;1.50;99.90;;;;;;4935565;28;20196;-61
2024/01/15 08:32:42;;;;;;;22.30;18.87;;;1.40;99.90;;;;;;4959722;28;20203;-59
2024/01/15 08:35:10;;;;;;;25.17;20.83;;;1.40;99.90;;;;;;4967137;28;20221;-59
2024/01/15 08:37:38;;;;;;;20.77;18.57;;;1.40;99.90;;;;;;4947676;28;20547;-60
2024/01/15 08:40:06;;;;;;;29.07;19.40;;;1.40;99.90;;;;;;4940028;28;20187;-60
2024/01/15 08:42:33;;;;;;;24.17;18.30;;;1.40;99.90;;;;;;4950731;28;20706;-60
2024/01/15 08:45:00;;;;;;;23.90;18.43;;;1.30;99.90;;;;;;4930459;29;20191;-58
2024/01/15 08:47:27;;;;;;;25.83;18.30;;;1.30;99.90;;;;;;4941863;28;20622;-58
2024/01/15 08:49:54;;;;;;;19.47;17.50;;;1.30;99.90;;;;;;4956730;28;20536;-58
2024/01/15 08:52:21;;;;;;;23.03;19.20;;;1.30;99.90;;;;;;4927841;29;20747;-59
2024/01/15 08:54:48;;;;;;;21.10;18.77;;;1.40;99.90;;;;;;4928778;28;20209;-59
2024/01/15 08:57:15;;;;;;;22.27;19.33;;;1.40;99.90;;;;;;4962909;28;20226;-58
2024/01/15 08:59:42;;;;;;;20.93;18.03;;;1.50;99.90;;;;;;4929082;28;20365;-59
2024/01/15 09:02:09;;;;;;;18.90;17.10;;;1.50;99.90;;;;;;4956256;28;20362;-59
2024/01/15 09:04:36;;;;;;;18.83;15.90;;;1.50;99.90;;;;;;4957486;28;20659;-59
2024/01/15 09:07:04;;;;;;;18.30;16.50;;;1.60;99.90;;;;;;4953396;28;20191;-59
2024/01/15 09:09:31;;;;;;;17.97;16.37;;;1.60;99.90;;;;;;4949532;28;20191;-59
2024/01/15 09:11:58;;;;;;;15.97;14.67;;;1.70;99.90;;;;;;4937515;29;20601;-62
2024/01/15 09:14:26;;;;;;;17.13;15.53;;;1.70;99.90;;;;;;4957379;28;20250;-63
2024/01/15 09:17:04;;;;;;;16.83;14.87;;;1.90;99.90;;;;;;4940951;29;20202;-64
2024/01/15 09:19:31;;;;;;;16.10;14.80;;;1.80;99.90;;;;;;4969158;28;20285;-63
2024/01/15 09:21:58;;;;;;;16.27;15.00;;;1.90;99.90;;;;;;4954292;28;20193;-63
2024/01/15 09:24:25;;;;;;;16.83;15.23;;;2.10;99.90;;;;;;4951766;28;20643;-62
2024/01/15 09:26:55;;;;;;;18.00;16.20;;;2.30;99.90;;;;;;4933245;29;20199;-63
2024/01/15 09:29:23;;;;;;;17.60;16.00;;;2.40;99.90;;;;;;4958486;28;20566;-63
2024/01/15 09:31:51;;;;;;;18.10;16.50;;;2.30;99.90;;;;;;4941450;28;20241;-63
2024/01/15 09:34:18;;;;;;;19.37;17.67;;;2.10;99.90;;;;;;4958202;28;20198;-63
2024/01/15 09:36:45;;;;;;;18.97;17.00;;;2.00;99.90;;;;;;4936179;29;20389;-63
2024/01/15 09:39:13;;;;;;;18.77;16.93;;;2.00;99.90;;;;;;4942835;29;20195;-62
2024/01/15 09:41:40;;;;;;;17.83;16.10;;;1.90;99.90;;;;;;4933182;29;20194;-63
2024/01/15 09:44:07;;;;;;;18.00;16.40;;;1.90;99.90;;;;;;4952245;28;20238;-63
2024/01/15 09:46:35;;;;;;;18.90;17.30;;;2.00;99.90;;;;;;4920350;29;20660;-63
2024/01/15 09:49:02;;;;;;;18.83;17.13;;;2.10;99.90;;;;;;4963440;28;20190;-64
2024/01/15 09:51:32;;;;;;;18.43;16.73;;;2.10;99.90;;;;;;4940700;29;20199;-65
2024/01/15 09:54:00;;;;;;;18.37;16.97;;;2.00;99.90;;;;;;4968374;28;20698;-62
2024/01/15 09:56:27;;;;;;;17.70;16.17;;;1.90;99.90;;;;;;4947772;28;20563;-65
2024/01/15 09:58:54;;;;;;;18.63;16.90;;;1.90;99.90;;;;;;4962905;28;20297;-62
2024/01/15 10:01:21;;;;;;;18.50;16.97;;;1.90;99.90;;;;;;4962971;28;20281;-63
2024/01/15 10:03:50;;;;;;;18.57;16.80;;;2.00;99.90;;;;;;4957702;28;20709;-63
2024/01/15 10:06:17;;;;;;;18.93;17.23;;;2.00;99.90;;;;;;4930844;28;20221;-63
2024/01/15 10:08:51;;;;;;;20.13;18.03;;;2.00;99.90;;;;;;4941008;28;20571;-63
2024/01/15 10:11:18;;;;;;;18.63;17.00;;;2.00;99.90;;;;;;4965032;28;20229;-63
2024/01/15 10:13:46;;;;;;;19.03;17.37;;;2.00;99.90;;;;;;4963320;28;20233;-63
2024/01/15 10:16:16;;;;;;;18.90;17.30;;;2.10;99.90;;;;;;4966821;28;20199;-65
2024/01/15 10:18:43;;;;;;;18.27;16.60;;;2.10;99.90;;;;;;4969751;28;20206;-64
2024/01/15 10:21:10;;;;;;;19.37;17.67;;;2.00;99.90;;;;;;4969188;28;20344;-60
2024/01/15 10:23:37;;;;;;;20.50;18.60;;;2.00;99.90;;;;;;4941686;28;20838;-59
2024/01/15 10:26:04;;;;;;;21.17;18.97;;;2.00;99.90;;;;;;4960595;28;20205;-60
2024/01/15 10:28:32;;;;;;;20.03;18.17;;;2.00;99.90;;;;;;4941101;28;20254;-59
2024/01/15 10:31:00;;;;;;;21.90;19.60;;;2.10;99.90;;;;;;4959060;28;20210;-60
2024/01/15 10:33:28;;;;;;;19.70;18.00;;;2.10;99.90;;;;;;4958097;28;20230;-60
2024/01/15 10:35:57;;;;;;;20.93;18.83;;;2.20;99.90;;;;;;4930999;29;20199;-60
2024/01/15 10:38:25;;;;;;;19.93;17.93;;;2.10;99.90;;;;;;4922679;28;20257;-59
2024/01/15 10:40:56;;;;;;;20.40;18.23;;;2.10;99.90;;;;;;4941016;28;20218;-61
2024/01/15 10:43:23;;;;;;;18.63;16.93;;;2.10;99.90;;;;;;4922585;29;20246;-58
2024/01/15 10:45:55;;;;;;;19.33;17.70;;;2.00;99.90;;;;;;4953280;28;20213;-59
2024/01/15 10:48:22;;;;;;;18.93;17.23;;;2.00;99.90;;;;;;4936430;28;20643;-59
2024/01/15 10:50:50;;;;;;;21.10;19.20;;;2.20;99.90;;;;;;4951468;28;20199;-60
2024/01/15 10:53:17;;;;;;;17.97;16.43;;;2.30;99.90;;;;;;4957894;28;20202;-59
2024/01/15 10:55:48;;;;;;;17.37;16.07;;;2.30;99.90;;;;;;4938704;28;20215;-60
2024/01/15 10:58:17;;;;;;;16.93;15.30;;;2.50;99.90;;;;;;4923621;28;20322;-59
2024/01/15 11:00:44;;;;;;;17.20;15.97;;;2.80;99.90;;;;;;4959443;28;20317;-59
2024/01/15 11:03:13;;;;;;;18.17;16.47;;;3.30;99.90;;;;;;4952563;28;20674;-60
2024/01/15 11:05:44;;;;;;;18.60;17.20;;;3.10;99.90;;;;;;4950766;28;20205;-58
2024/01/15 11:08:11;;;;;;;20.10;18.50;;;2.80;99.90;;;;;;4953097;28;20246;-58
2024/01/15 11:10:52;;;;;;;19.70;18.13;;;2.60;99.90;;;;;;4936279;29;20199;-59
2024/01/15 11:13:39;;;;;;;21.07;18.77;;;2.50;99.90;;;;;;4916688;28;20567;-59
2024/01/15 11:16:07;;;;;;;19.47;17.93;;;2.40;99.90;;;;;;4923237;28;20321;-59
2024/01/15 11:18:37;;;;;;;19.70;18.03;;;2.50;99.90;;;;;;4952552;28;20654;-60
2024/01/15 11:21:16;;;;;;;20.50;18.80;;;2.60;99.90;;;;;;4947116;28;20199;-59
2024/01/15 11:23:46;;;;;;;19.03;17.53;;;2.40;99.90;;;;;;4952876;28;20622;-59
2024/01/15 11:26:36;;;;;;;17.70;16.30;;;2.40;99.90;;;;;;4921865;29;20213;-58
2024/01/15 11:29:05;;;;;;;18.00;16.70;;;2.40;99.90;;;;;;4953256;28;20610;-59
2024/01/15 11:31:38;;;;;;;17.60;16.10;;;2.50;99.90;;;;;;4963346;28;20633;-59
2024/01/15 11:34:07;;;;;;;17.97;16.43;;;2.70;99.90;;;;;;4946830;28;20210;-58
2024/01/15 11:37:01;;;;;;;17.03;15.70;;;2.90;99.90;;;;;;4921179;29;20552;-59
2024/01/15 11:39:28;;;;;;;16.03;14.93;;;2.90;99.90;;;;;;4935344;28;20233;-60
2024/01/15 11:42:03;;;;;;;17.33;16.17;;;2.80;99.90;;;;;;4958423;28;20278;-59
2024/01/15 11:44:30;;;;;;;17.53;16.27;;;3.40;99.90;;;;;;4939016;28;20387;-59
2024/01/15 11:47:00;;;;;;;17.53;16.13;;;3.50;99.90;;;;;;4957040;28;20195;-59
2024/01/15 11:49:50;;;;;;;18.40;17.10;;;3.00;99.90;;;;;;4936591;29;20694;-59
2024/01/15 11:52:18;;;;;;;18.10;16.87;;;3.00;99.90;;;;;;4932161;29;20526;-59
2024/01/15 11:55:07;;;;;;;19.80;17.67;;;3.00;99.90;;;;;;4933355;29;20652;-60
2024/01/15 11:57:51;;;;;;;19.30;17.90;;;3.20;99.90;;;;;;4960084;28;20209;-59
2024/01/15 12:00:18;;;;;;;19.00;17.40;;;2.90;99.90;;;;;;4956336;28;21020;-59
2024/01/15 12:02:46;;;;;;;18.87;17.43;;;2.90;99.90;;;;;;4931810;28;20224;-59
2024/01/15 12:05:17;;;;;;;18.47;16.97;;;2.80;99.90;;;;;;4959894;28;20366;-59
2024/01/15 12:07:47;;;;;;;18.03;16.77;;;2.70;99.90;;;;;;4951152;28;20197;-59
2024/01/15 12:10:20;;;;;;;17.20;16.07;;;2.60;99.90;;;;;;4937770;28;20206;-59
2024/01/15 12:13:06;;;;;;;17.97;16.57;;;2.50;99.90;;;;;;4946677;28;20734;-58
2024/01/15 12:15:33;;;;;;;16.20;14.97;;;2.40;99.90;;;;;;4923716;28;20206;-60
2024/01/15 12:18:02;;;;;;;16.63;15.37;;;2.40;99.90;;;;;;4962975;28;20185;-58
2024/01/15 12:20:31;;;;;;;16.77;15.50;;;2.40;99.90;;;;;;4953036;28;20191;-60
2024/01/15 12:22:58;;;;;;;16.23;15.03;;;2.50;99.90;;;;;;4945778;28;20217;-58
2024/01/15 12:25:30;;;;;;;16.10;14.87;;;2.50;99.90;;;;;;4950835;28;20191;-59
2024/01/15 12:27:59;;;;;;;16.30;15.20;;;2.50;99.90;;;;;;4952640;28;20187;-59
2024/01/15 12:30:33;;;;;;;16.37;14.93;;;2.60;99.90;;;;;;4937685;28;20190;-59
2024/01/15 12:33:06;;;;;;;15.83;14.80;;;2.60;99.90;;;;;;4952630;28;20679;-59
2024/01/15 12:35:34;;;;;;;16.63;15.43;;;2.60;99.90;;;;;;4950349;28;20210;-59
2024/01/15 12:38:02;;;;;;;15.97;14.97;;;2.70;99.90;;;;;;4929047;29;20605;-59
2024/01/15 12:40:32;;;;;;;16.50;15.40;;;2.70;99.90;;;;;;4954201;28;20439;-60